Terminal Aerodrome Forecast
Issued by NWS

Current Version | Previous Version | Text Only | Print | Product List | Glossary On
Versions: 1 2 3 4 5 6 7 8 9 10 11 12 13 14 15 16 17 18 19 20 21 22 23 24 25
000
FTUS41 KCTP 250321 AAC
TAFUNV
TAF AMD
KUNV 250321Z 2503/2524 19008G16KT P6SM SCT200
     FM250800 18008KT P6SM BKN015
      TEMPO 2514/2517 23015G30KT 2SM +SHRA OVC015
     FM251700 24012G24KT P6SM BKN035
     FM252000 27015G25KT P6SM BKN035=

USA.gov is the U.S. government's official web portal to all federal, state and local government web resources and services.